Time;durP1;ratioP1;P1;durP2;ratioP2;P2;SDS_P1;SDS_P2;PMS_P1;PMS_P2;Temp;Humidity;BMP_temperature;BMP_pressure;BME280_temperature;BME280_humidity;BME280_pressure;Samples;Min_cycle;Max_cycle;Signal;HPM_P1;HPM_P2
2022/03/12 00:01:08;;;;;;;26.23;13.05;;;;;;;-3.04;100.00;60486.09;5093292;28;20518;-74
2022/03/12 00:03:36;;;;;;;24.65;13.45;;;;;;;-3.00;100.00;60490.84;5092729;28;20203;-74
2022/03/12 00:06:06;;;;;;;28.75;13.27;;;;;;;-4.02;100.00;60388.19;5092081;28;20231;-74
2022/03/12 00:08:41;;;;;;;27.02;13.90;;;;;;;-2.89;100.00;60504.94;5093181;28;20291;-75
2022/03/12 00:11:10;;;;;;;26.42;13.80;;;;;;;-2.83;100.00;60508.78;5093115;28;20290;-76
2022/03/12 00:13:37;;;;;;;33.63;15.38;;;;;;;-3.10;100.00;60482.78;5092003;28;20206;-73
2022/03/12 00:16:13;;;;;;;31.08;15.50;;;;;;;-2.75;100.00;60519.72;5093052;28;20211;-73
2022/03/12 00:18:40;;;;;;;32.70;15.43;;;;;;;-2.96;100.00;60500.06;5092593;28;20210;-74
2022/03/12 00:21:11;;;;;;;28.25;14.57;;;;;;;-2.90;100.00;60506.38;5092876;28;20200;-73
2022/03/12 00:23:38;;;;;;;27.20;13.23;;;;;;;-3.05;100.00;60485.03;5092210;28;20203;-75
2022/03/12 00:26:14;;;;;;;31.65;13.75;;;;;;;-2.96;100.00;60500.06;5093568;28;20272;-73
2022/03/12 00:28:43;;;;;;;25.10;12.40;;;;;;;-4.35;100.00;60349.47;5098662;28;20563;-73
2022/03/12 00:31:12;;;;;;;23.63;11.98;;;;;;;-3.51;100.00;60441.97;5093944;28;20584;-73
2022/03/12 00:33:41;;;;;;;20.55;11.68;;;;;;;-3.53;100.00;60439.88;5096818;28;20196;-73
2022/03/12 00:36:09;;;;;;;21.67;11.97;;;;;;;-2.97;100.00;60494.00;5091533;28;20202;-74
2022/03/12 00:38:36;;;;;;;19.70;11.18;;;;;;;-3.39;100.00;60454.13;5092804;28;20434;-74
2022/03/12 00:41:04;;;;;;;23.90;11.10;;;;;;;-3.08;100.00;60482.41;5092723;28;20199;-74
2022/03/12 00:43:31;;;;;;;23.35;11.55;;;;;;;-2.86;100.00;60510.63;5092611;28;20196;-74
2022/03/12 00:45:59;;;;;;;26.77;12.00;;;;;;;-2.82;100.00;60509.84;5091400;28;20226;-73
2022/03/12 00:48:32;;;;;;;24.73;12.27;;;;;;;-2.68;100.00;60527.13;5092529;28;20207;-74
2022/03/12 00:51:00;;;;;;;24.33;11.60;;;;;;;-2.90;100.00;60501.41;5093133;28;20227;-72
2022/03/12 00:53:27;;;;;;;22.42;12.45;;;;;;;-2.76;100.00;60518.69;5092556;28;20272;-74
2022/03/12 00:55:59;;;;;;;28.58;13.57;;;;;;;-3.52;100.00;60430.97;5092699;28;20195;-75
2022/03/12 00:58:27;;;;;;;24.38;13.27;;;;;;;-2.86;100.00;60510.63;5092265;28;20740;-74
2022/03/12 01:00:55;;;;;;;22.48;12.13;;;;;;;-3.04;100.00;60489.13;5092200;28;20196;-72
2022/03/12 01:03:23;;;;;;;22.83;12.18;;;;;;;-2.96;100.00;60497.56;5091710;28;20195;-71
2022/03/12 01:05:59;;;;;;;24.33;12.13;;;;;;;-2.64;100.00;60533.31;5091901;28;20790;-75
2022/03/12 01:08:32;;;;;;;16.75;9.57;;;;;;;-2.85;100.00;60506.69;5092124;28;20282;-74
2022/03/12 01:11:04;;;;;;;17.23;8.38;;;;;;;-2.91;100.00;60499.81;5091978;28;20249;-73
2022/03/12 01:13:37;;;;;;;17.23;8.70;;;;;;;-3.71;100.00;60416.44;5091606;28;20207;-76
2022/03/12 01:16:07;;;;;;;17.65;9.75;;;;;;;-4.23;100.00;60361.06;5091890;28;20627;-73
2022/03/12 01:18:39;;;;;;;20.25;10.60;;;;;;;-3.00;100.00;60495.81;5091671;28;20199;-75
2022/03/12 01:21:16;;;;;;;23.45;11.85;;;;;;;-3.22;100.00;60470.13;5092079;28;20278;-72
2022/03/12 01:23:52;;;;;;;20.63;10.88;;;;;;;-3.21;100.00;60471.16;5091855;28;20226;-72
2022/03/12 01:26:21;;;;;;;13.75;7.80;;;;;;;-3.51;100.00;60440.03;5091745;28;20310;-75
2022/03/12 01:28:48;;;;;;;19.65;9.65;;;;;;;-3.39;100.00;60449.66;5091778;28;20218;-73
2022/03/12 01:31:15;;;;;;;16.42;8.90;;;;;;;-3.76;100.00;60411.16;5091828;28;20566;-73
2022/03/12 01:33:43;;;;;;;18.15;8.43;;;;;;;-3.97;100.00;60390.97;5091378;28;20196;-72
2022/03/12 01:36:13;;;;;;;16.42;8.10;;;;;;;-3.19;100.00;60475.22;5091312;28;20212;-74
2022/03/12 01:38:51;;;;;;;18.10;7.47;;;;;;;-3.22;100.00;60469.56;5091655;28;20207;-73
2022/03/12 01:41:22;;;;;;;8.57;4.70;;;;;;;-3.52;100.00;60438.44;5092086;28;20199;-74
2022/03/12 01:43:51;;;;;;;7.88;3.80;;;;;;;-3.48;100.00;60445.16;5091627;28;20199;-73
2022/03/12 01:46:18;;;;;;;8.70;4.57;;;;;;;-3.53;100.00;60439.88;5091531;28;20268;-74
2022/03/12 01:48:52;;;;;;;10.50;4.05;;;;;;;-4.50;100.00;60336.13;5091625;28;20234;-73
2022/03/12 01:51:21;;;;;;;6.22;4.07;;;;;;;-3.59;100.00;60433.53;5091676;28;20202;-73
2022/03/12 01:53:51;;;;;;;8.07;4.15;;;;;;;-4.21;100.00;60366.19;5091592;28;20207;-74
2022/03/12 01:56:17;;;;;;;8.80;4.53;;;;;;;-3.66;100.00;60426.16;5091671;28;20202;-75
2022/03/12 01:58:47;;;;;;;10.55;5.43;;;;;;;-4.12;100.00;60372.66;5091519;28;20601;-74
2022/03/12 02:01:15;;;;;;;11.40;5.45;;;;;;;-4.11;100.00;60373.72;5087441;28;20247;-74
2022/03/12 02:03:46;;;;;;;14.05;5.80;;;;;;;-3.57;100.00;60428.72;5086583;28;20665;-74
2022/03/12 02:06:22;;;;;;;11.55;6.30;;;;;;;-3.57;100.00;60436.19;5074410;28;20219;-74
2022/03/12 02:08:58;;;;;;;13.25;5.95;;;;;;;-3.58;100.00;60434.59;5091685;28;20196;-73
2022/03/12 02:11:27;;;;;;;12.32;6.13;;;;;;;-3.55;100.00;60437.75;5091620;28;20230;-74
2022/03/12 02:13:59;;;;;;;14.75;7.13;;;;;;;-3.87;100.00;60404.00;5091367;28;20286;-75
2022/03/12 02:16:27;;;;;;;11.10;5.80;;;;;;;-3.46;100.00;60442.28;5091550;28;20290;-73
2022/03/12 02:18:54;;;;;;;10.57;5.55;;;;;;;-3.51;100.00;60441.97;5091412;28;20617;-75
2022/03/12 02:21:34;;;;;;;9.75;5.40;;;;;;;-3.52;100.00;60435.97;5091624;28;20203;-74
2022/03/12 02:24:05;;;;;;;9.35;5.18;;;;;;;-4.10;100.00;60372.28;5091496;28;20254;-74
2022/03/12 02:26:33;;;;;;;9.82;5.32;;;;;;;-3.64;100.00;60428.28;5089907;28;20547;-74
2022/03/12 02:29:00;;;;;;;10.30;5.25;;;;;;;-3.31;100.00;60460.59;5091451;28;20280;-74
2022/03/12 02:31:30;;;;;;;9.93;5.80;;;;;;;-3.62;100.00;60425.91;5090233;28;20282;-74
2022/03/12 02:34:04;;;;;;;10.02;5.35;;;;;;;-3.16;100.00;60473.97;5091065;28;20671;-73
2022/03/12 02:36:31;;;;;;;10.18;5.13;;;;;;;-3.32;100.00;60457.06;5091182;28;20600;-74
2022/03/12 02:39:01;;;;;;;12.95;5.85;;;;;;;-3.26;100.00;60462.88;5091100;28;20196;-73
2022/03/12 02:41:29;;;;;;;9.40;6.05;;;;;;;-3.18;100.00;60471.84;5091457;28;20195;-74
2022/03/12 02:43:58;;;;;;;10.38;6.45;;;;;;;-3.21;100.00;60468.66;5091259;28;20262;-75
2022/03/12 02:46:29;;;;;;;12.93;7.55;;;;;;;-3.24;100.00;60470.50;5095380;28;20227;-74
2022/03/12 02:48:56;;;;;;;14.02;7.35;;;;;;;-3.14;100.00;60476.06;5094919;28;20202;-74
2022/03/12 02:51:26;;;;;;;15.23;6.95;;;;;;;-4.08;100.00;60381.84;5094867;28;20196;-73
2022/03/12 02:53:56;;;;;;;11.88;6.65;;;;;;;-2.97;100.00;60493.47;5094536;28;20746;-76
2022/03/12 02:56:23;;;;;;;14.35;7.53;;;;;;;-3.02;100.00;60491.22;5095143;28;20754;-74
2022/03/12 02:58:54;;;;;;;12.88;7.00;;;;;;;-2.88;100.00;60508.50;5095432;28;20272;-76
2022/03/12 03:01:26;;;;;;;13.68;7.50;;;;;;;-3.09;100.00;60481.34;5095208;28;20206;-76
2022/03/12 03:03:53;;;;;;;12.25;7.43;;;;;;;-2.97;100.00;60494.00;5095136;28;20191;-74
2022/03/12 03:06:21;;;;;;;14.50;8.73;;;;;;;-2.95;100.00;60498.59;5095595;28;20277;-72
2022/03/12 03:08:48;;;;;;;14.05;7.00;;;;;;;-2.85;100.00;60506.69;5095430;28;20449;-74
2022/03/12 03:11:16;;;;;;;16.10;7.20;;;;;;;-2.80;100.00;60511.97;5094292;28;20231;-74
2022/03/12 03:13:45;;;;;;;17.07;7.40;;;;;;;-2.79;100.00;60513.00;5094558;28;20206;-76
2022/03/12 03:16:21;;;;;;;14.05;7.38;;;;;;;-2.96;100.00;60500.06;5094199;28;20530;-73
2022/03/12 03:18:53;;;;;;;15.05;7.13;;;;;;;-2.95;100.00;60496.13;5094198;28;20232;-74
2022/03/12 03:21:22;;;;;;;13.88;7.00;;;;;;;-2.99;100.00;60494.38;5093170;28;20195;-76
2022/03/12 03:23:49;;;;;;;14.70;7.75;;;;;;;-2.89;100.00;60502.44;5094226;28;20204;-74
2022/03/12 03:26:43;;;;;;;13.88;7.57;;;;;;;-2.93;100.00;60500.72;5094142;28;20199;-74
2022/03/12 03:29:10;;;;;;;14.40;7.63;;;;;;;-3.16;100.00;60473.97;5093775;28;20292;-75
2022/03/12 03:31:39;;;;;;;14.57;7.25;;;;;;;-2.93;100.00;60503.22;5094104;28;20196;-73
2022/03/12 03:34:06;;;;;;;16.75;8.05;;;;;;;-2.95;100.00;60498.59;5092615;28;20211;-75
2022/03/12 03:36:35;;;;;;;19.85;9.82;;;;;;;-3.01;100.00;60489.78;5093874;28;20288;-74
2022/03/12 03:39:02;;;;;;;23.30;10.63;;;;;;;-2.98;100.00;60497.94;5093809;28;20222;-75
2022/03/12 03:41:33;;;;;;;23.85;12.43;;;;;;;-3.17;100.00;60472.88;5093710;28;20446;-72
2022/03/12 03:44:01;;;;;;;17.00;9.05;;;;;;;-3.97;100.00;60393.44;5092455;28;20581;-76
2022/03/12 03:46:27;;;;;;;21.05;9.68;;;;;;;-3.18;100.00;60476.81;5093788;28;20200;-75
2022/03/12 03:48:56;;;;;;;16.95;9.48;;;;;;;-3.13;100.00;60479.59;5081518;28;20204;-74
2022/03/12 03:51:24;;;;;;;19.10;9.50;;;;;;;-3.09;100.00;60483.81;5073436;28;20659;-75
2022/03/12 03:53:53;;;;;;;18.17;8.77;;;;;;;-2.99;100.00;60493.84;5073321;28;20274;-75
2022/03/12 03:56:21;;;;;;;17.80;9.23;;;;;;;-2.94;100.00;60497.19;5073241;28;20203;-74
2022/03/12 03:58:49;;;;;;;18.75;8.88;;;;;;;-2.91;100.00;60500.34;5072652;28;20211;-74
2022/03/12 04:01:18;;;;;;;19.15;8.90;;;;;;;-2.86;100.00;60510.63;5073213;28;20208;-74
2022/03/12 04:03:48;;;;;;;19.87;10.07;;;;;;;-2.91;100.00;60500.34;5073239;28;20327;-73
2022/03/12 04:06:25;;;;;;;23.97;9.40;;;;;;;-2.96;100.00;60499.53;5073391;28;20809;-76
2022/03/12 04:08:54;;;;;;;22.27;11.17;;;;;;;-3.02;100.00;60488.72;5072836;28;20450;-75
2022/03/12 04:11:24;;;;;;;24.80;12.67;;;;;;;-3.01;100.00;60494.75;5087929;28;20964;-73
2022/03/12 04:13:53;;;;;;;21.67;10.40;;;;;;;-3.01;100.00;60489.78;5097577;28;20430;-75
2022/03/12 04:16:21;;;;;;;24.30;10.38;;;;;;;-2.97;100.00;60496.50;5093446;28;20449;-74
2022/03/12 04:18:51;;;;;;;23.27;10.60;;;;;;;-3.13;100.00;60477.13;5093453;28;20253;-73
2022/03/12 04:21:21;;;;;;;20.97;10.53;;;;;;;-3.08;100.00;60484.88;5093189;28;20510;-76
2022/03/12 04:23:53;;;;;;;19.40;10.03;;;;;;;-3.14;100.00;60476.06;5091989;28;20481;-74
2022/03/12 04:26:21;;;;;;;22.70;11.60;;;;;;;-3.36;100.00;60452.84;5093233;28;20456;-74
2022/03/12 04:28:49;;;;;;;23.90;12.47;;;;;;;-3.49;100.00;60439.13;5091671;28;20442;-74
2022/03/12 04:31:17;;;;;;;19.67;11.55;;;;;;;-3.25;100.00;60469.44;5093172;28;20797;-74
2022/03/12 04:33:46;;;;;;;21.35;11.05;;;;;;;-3.24;100.00;60470.50;5092580;28;20299;-76
2022/03/12 04:36:15;;;;;;;28.52;12.73;;;;;;;-3.14;100.00;60481.06;5092839;28;20212;-76
2022/03/12 04:38:46;;;;;;;35.65;13.13;;;;;;;-3.22;100.00;60467.63;5092797;28;20302;-75
2022/03/12 04:41:19;;;;;;;25.50;13.27;;;;;;;-3.56;100.00;60434.22;5092940;28;20233;-75
2022/03/12 04:43:51;;;;;;;23.87;11.83;;;;;;;-3.23;100.00;60466.56;5091463;28;20282;-76
2022/03/12 04:46:18;;;;;;;25.73;11.10;;;;;;;-3.55;100.00;60432.78;5092124;28;20491;-75
2022/03/12 04:48:46;;;;;;;22.30;10.30;;;;;;;-3.97;100.00;60393.97;5092501;28;20546;-73
2022/03/12 04:51:15;;;;;;;18.67;9.85;;;;;;;-4.45;100.00;60341.41;5092395;28;20823;-76
2022/03/12 04:53:46;;;;;;;20.55;9.90;;;;;;;-4.66;100.00;60319.28;5092280;28;20575;-75
2022/03/12 04:56:19;;;;;;;21.38;10.07;;;;;;;-3.68;100.00;60424.06;5092152;28;20745;-74
2022/03/12 04:58:47;;;;;;;19.92;9.40;;;;;;;-3.59;100.00;60433.53;5094823;28;20220;-76
2022/03/12 05:01:14;;;;;;;17.67;9.02;;;;;;;-4.00;100.00;60388.31;5092507;28;20192;-76
2022/03/12 05:03:43;;;;;;;19.90;8.82;;;;;;;-3.84;100.00;60407.19;5092153;28;20207;-76
2022/03/12 05:06:15;;;;;;;20.15;9.32;;;;;;;-3.82;100.00;60409.28;5092317;28;20203;-75
2022/03/12 05:08:45;;;;;;;20.02;8.85;;;;;;;-3.61;100.00;60428.94;5092048;28;20673;-75
2022/03/12 05:11:13;;;;;;;17.70;8.52;;;;;;;-3.63;100.00;60429.84;5091452;28;20200;-73
2022/03/12 05:13:40;;;;;;;17.08;9.27;;;;;;;-3.48;100.00;60445.16;5092065;28;20249;-76
2022/03/12 05:16:08;;;;;;;17.08;9.65;;;;;;;-3.57;100.00;60435.66;5091250;28;20260;-76
2022/03/12 05:18:44;;;;;;;21.55;10.38;;;;;;;-3.54;100.00;60436.34;5092229;28;20204;-78
2022/03/12 05:21:16;;;;;;;19.13;9.45;;;;;;;-4.58;100.00;60324.69;5091603;28;20266;-76
2022/03/12 05:23:45;;;;;;;20.45;9.60;;;;;;;-3.39;100.00;60449.66;5092445;28;20206;-75
2022/03/12 05:26:14;;;;;;;18.92;9.38;;;;;;;-3.39;100.00;60454.66;5091192;28;20584;-74
2022/03/12 05:28:41;;;;;;;17.23;8.90;;;;;;;-3.26;100.00;60462.88;5092125;28;20227;-75
2022/03/12 05:31:10;;;;;;;28.13;11.15;;;;;;;-3.17;100.00;60477.88;5092091;28;20215;-75
2022/03/12 05:33:37;;;;;;;24.63;12.27;;;;;;;-3.11;100.00;60481.72;5092214;28;20231;-76
2022/03/12 05:36:07;;;;;;;24.88;11.75;;;;;;;-3.29;100.00;60462.72;5091400;28;20631;-73
2022/03/12 05:41:35;;;;;;;22.40;11.55;;;;;;;-3.01;100.00;60489.25;5092176;28;20238;-75
2022/03/12 05:44:03;;;;;;;25.02;12.02;;;;;;;-3.62;100.00;60427.91;5091393;28;20208;-75
2022/03/12 05:46:32;;;;;;;29.67;13.18;;;;;;;-3.30;100.00;60456.69;5073928;28;20212;-75
2022/03/12 05:49:01;;;;;;;30.85;15.95;;;;;;;-4.46;100.00;60339.81;5070308;28;20231;-74
2022/03/12 05:51:30;;;;;;;23.70;10.27;;;;;;;-3.21;100.00;60473.66;5071996;28;20771;-75
2022/03/12 05:54:02;;;;;;;21.63;10.82;;;;;;;-3.10;100.00;60482.78;5071436;28;20210;-77
2022/03/12 05:56:35;;;;;;;18.75;9.95;;;;;;;-2.93;100.00;60503.22;5070549;28;20196;-77
2022/03/12 05:59:04;;;;;;;17.80;9.13;;;;;;;-2.70;100.00;60527.50;5074873;28;20219;-73
2022/03/12 06:01:32;;;;;;;20.00;8.67;;;;;;;-2.44;100.00;60551.41;5091639;28;20223;-75
2022/03/12 06:04:08;;;;;;;26.85;10.38;;;;;;;-2.13;100.00;60581.69;5092114;28;20445;-74
2022/03/12 06:09:24;;;;;;;19.48;8.93;;;;;;;-1.48;100.00;60645.41;5078176;28;20306;-77
2022/03/12 06:11:53;;;;;;;17.95;9.20;;;;;;;-0.64;100.00;60738.25;5092678;28;20297;-77
2022/03/12 06:17:10;;;;;;;20.47;11.43;;;;;;;-0.02;100.00;60803.91;5090895;28;20994;-79
2022/03/12 06:19:38;;;;;;;20.43;11.37;;;;;;;-0.30;100.00;60779.25;5074719;28;20891;-79
2022/03/12 06:22:06;;;;;;;21.40;11.73;;;;;;;0.33;100.00;60845.97;5074497;28;20467;-77
2022/03/12 06:25:03;;;;;;;19.00;10.93;;;;;;;0.53;100.00;60857.16;5077952;28;20446;-76
2022/03/12 06:27:32;;;;;;;23.27;11.47;;;;;;;0.49;100.00;60857.94;5075129;28;20474;-75
2022/03/12 06:30:01;;;;;;;23.13;11.23;;;;;;;1.32;100.00;60949.91;5074849;28;20447;-76
2022/03/12 06:32:31;;;;;;;23.43;12.20;;;;;;;1.06;100.00;60917.31;5074750;28;20446;-76
2022/03/12 06:34:59;;;;;;;17.73;10.47;;;;;;;0.35;100.00;60843.09;5074807;28;20482;-77
2022/03/12 06:40:35;;;;;;;15.03;8.53;;;;;;;0.40;100.00;60845.91;5075047;28;20438;-78
2022/03/12 06:43:22;;;;;;;16.27;9.00;;;;;;;1.06;100.00;60919.81;5075082;28;20492;-79
2022/03/12 06:45:53;;;;;;;13.27;7.43;;;;;;;1.09;100.00;60926.03;5075103;28;20476;-77
2022/03/12 06:48:25;;;;;;;13.10;7.43;;;;;;;1.57;100.00;60973.91;5084158;28;20513;-77
2022/03/12 06:50:53;;;;;;;13.97;7.37;;;;;;;1.52;100.00;60966.09;5093666;28;20449;-76
2022/03/12 06:53:20;;;;;;;11.57;6.87;;;;;;;1.25;100.00;60942.47;5089927;28;20449;-76
2022/03/12 06:55:48;;;;;;;14.50;7.33;;;;;;;1.06;100.00;60917.31;5096841;28;20449;-76
2022/03/12 06:58:17;;;;;;;14.87;7.57;;;;;;;1.55;100.00;60964.28;5079246;28;20526;-77
2022/03/12 07:00:46;;;;;;;13.23;7.90;;;;;;;1.77;100.00;60992.63;5073748;28;20438;-77
2022/03/12 07:03:32;;;;;;;12.77;7.47;;;;;;;2.30;100.00;61048.91;5074329;28;20865;-76
2022/03/12 07:05:59;;;;;;;11.33;6.70;;;;;;;2.09;100.00;61026.59;5073335;28;20952;-75
2022/03/12 07:08:37;;;;;;;11.60;5.87;;;;;;;1.84;100.00;61005.09;5085085;28;21055;-76
2022/03/12 07:11:04;;;;;;;13.90;6.63;;;;;;;1.97;100.00;61013.88;5085720;28;20812;-77
2022/03/12 07:16:17;;;;;;;9.80;5.43;;;;;;;2.30;100.00;61053.94;5077958;28;20892;-78
2022/03/12 07:18:49;;;;;;;13.90;7.97;;;;;;;2.48;100.00;61078.06;5073164;28;20446;-78
2022/03/12 07:21:23;;;;;;;15.83;7.40;;;;;;;1.79;100.00;60997.28;5074044;28;20839;-79
2022/03/12 07:23:53;;;;;;;14.60;7.80;;;;;;;2.54;100.00;61076.38;5073731;28;20454;-78
2022/03/12 07:26:21;;;;;;;10.77;6.50;;;;;;;2.73;100.00;61096.56;5073862;28;20488;-78
2022/03/12 07:28:49;;;;;;;7.67;5.07;;;;;;;2.71;100.00;61083.84;5073424;28;20482;-77
2022/03/12 07:31:21;;;;;;;7.33;5.00;;;;;;;2.68;100.00;61088.22;5071800;28;20496;-76
2022/03/12 07:33:50;;;;;;;7.97;5.03;;;;;;;3.16;100.00;61139.75;5071870;28;20443;-77
2022/03/12 07:36:17;;;;;;;7.83;4.93;;;;;;;2.42;100.00;61056.09;5078342;28;21026;-77
2022/03/12 07:38:45;;;;;;;10.83;5.37;;;;;;;3.30;100.00;61154.09;5072789;28;20462;-75
2022/03/12 07:41:18;;;;;;;8.57;5.70;;;;;;;3.42;100.00;61169.38;5073762;28;20435;-78
2022/03/12 07:43:48;;;;;;;8.43;5.10;;;;;;;3.24;100.00;61148.25;5074082;28;20886;-78
2022/03/12 07:46:18;;;;;;;7.50;5.20;;;;;;;3.43;100.00;61168.44;5073718;28;20811;-77
2022/03/12 07:48:47;;;;;;;7.20;5.07;;;;;;;3.59;100.00;61184.94;5072508;28;20520;-76
2022/03/12 07:51:17;;;;;;;9.03;4.77;;;;;;;3.40;100.00;61164.75;5073479;28;20454;-75
2022/03/12 07:53:47;;;;;;;7.57;4.83;;;;;;;2.74;100.00;61100.13;5081366;28;20435;-77
2022/03/12 07:56:14;;;;;;;9.07;5.27;;;;;;;3.03;100.00;61122.88;5079304;28;20488;-74
2022/03/12 07:58:41;;;;;;;8.07;4.73;;;;;;;2.85;100.00;61108.78;5081003;28;20928;-77
2022/03/12 08:01:12;;;;;;;9.77;5.43;;;;;;;2.05;100.00;61022.38;5073553;28;20882;-77
2022/03/12 08:03:41;;;;;;;8.53;5.83;;;;;;;2.24;100.00;61042.53;5073098;28;20916;-73
2022/03/12 08:06:10;;;;;;;9.00;5.50;;;;;;;2.48;100.00;61068.03;5072908;28;20466;-75
2022/03/12 08:08:39;;;;;;;8.33;5.17;;;;;;;3.55;100.00;61183.19;5073557;28;20583;-78
2022/03/12 08:11:28;;;;;;;12.20;5.50;;;;;;;3.57;100.00;61182.25;5083728;28;20438;-78
2022/03/12 08:14:02;;;;;;;8.13;5.40;;;;;;;5.02;100.00;61336.59;5077025;28;20438;-75
2022/03/12 08:16:30;;;;;;;7.90;5.67;;;;;;;5.33;100.00;61374.16;5080493;28;20450;-78
2022/03/12 08:18:58;;;;;;;7.70;5.47;;;;;;;5.04;92.07;61333.13;5072825;28;20451;-78
2022/03/12 08:21:25;;;;;;;8.50;5.70;;;;;;;4.54;86.86;61279.91;5073217;28;20500;-77
2022/03/12 08:23:55;;;;;;;7.27;4.53;;;;;;;4.66;89.65;61300.25;5072997;28;20504;-79
2022/03/12 08:26:22;;;;;;;7.50;4.83;;;;;;;4.03;93.06;61231.72;5072972;28;20496;-77
2022/03/12 08:28:49;;;;;;;7.40;5.43;;;;;;;3.02;93.24;61129.38;5072991;28;20474;-78
2022/03/12 08:31:19;;;;;;;10.23;6.10;;;;;;;2.26;91.27;61047.16;5072082;28;20498;-77
2022/03/12 08:33:46;;;;;;;14.07;6.00;;;;;;;2.31;100.00;61051.94;5072067;28;20443;-77
2022/03/12 08:36:16;;;;;;;8.63;5.40;;;;;;;2.51;100.00;61073.72;5071981;28;20891;-76
2022/03/12 08:38:44;;;;;;;11.37;5.23;;;;;;;2.16;100.00;61036.53;5072589;28;20451;-76
2022/03/12 08:41:16;;;;;;;9.10;5.30;;;;;;;2.46;100.00;61065.34;5072044;28;20770;-76
2022/03/12 08:43:43;;;;;;;8.20;5.67;;;;;;;1.96;100.00;61015.31;5070883;28;20450;-78
2022/03/12 08:46:10;;;;;;;9.00;5.37;;;;;;;2.09;100.00;61034.16;5072393;28;20446;-78
2022/03/12 08:48:40;;;;;;;9.70;6.20;;;;;;;1.71;100.00;60991.28;5072961;28;20498;-78
2022/03/12 08:51:09;;;;;;;9.33;5.50;;;;;;;0.88;100.00;60905.72;5072050;28;20447;-75
2022/03/12 08:53:38;;;;;;;7.67;4.73;;;;;;;0.92;100.00;60907.47;5071597;28;20447;-76
2022/03/12 08:56:08;;;;;;;11.37;6.10;;;;;;;0.65;100.00;60869.88;5071361;28;20470;-76
2022/03/12 08:58:43;;;;;;;10.43;5.57;;;;;;;1.05;100.00;60911.22;5073994;28;20475;-75
2022/03/12 09:01:12;;;;;;;10.97;6.00;;;;;;;1.08;100.00;60919.41;5070676;28;20925;-77
2022/03/12 09:03:39;;;;;;;10.07;6.17;;;;;;;0.33;100.00;60845.97;5076992;28;20537;-79
2022/03/12 09:06:10;;;;;;;10.10;5.60;;;;;;;1.03;100.00;60924.16;5072512;28;20539;-78
2022/03/12 09:08:38;;;;;;;13.57;5.87;;;;;;;0.78;100.00;60888.69;5073014;28;20996;-78
2022/03/12 09:11:05;;;;;;;8.87;5.77;;;;;;;0.76;100.00;60886.56;5083548;28;20450;-81
2022/03/12 09:13:47;;;;;;;12.20;6.10;;;;;;;0.72;100.00;60882.31;5091451;28;20478;-79
2022/03/12 09:16:15;;;;;;;9.87;6.07;;;;;;;0.60;100.00;60884.09;5093026;28;20519;-77
2022/03/12 09:18:44;;;;;;;9.37;5.60;;;;;;;1.19;100.00;60931.09;5093040;28;20485;-78
2022/03/12 09:21:14;;;;;;;9.60;5.93;;;;;;;2.52;100.00;61071.72;5101305;28;20476;-79
2022/03/12 09:23:42;;;;;;;9.47;5.30;;;;;;;3.36;100.00;61165.53;5093477;28;20839;-80
2022/03/12 09:26:12;;;;;;;10.47;6.40;;;;;;;3.28;100.00;61157.00;5089194;28;20519;-79
2022/03/12 09:28:43;;;;;;;11.37;7.03;;;;;;;4.13;100.00;61242.38;5091852;28;20607;-79
2022/03/12 09:31:12;;;;;;;12.83;6.20;;;;;;;2.87;99.20;61108.38;5091866;28;20463;-78
2022/03/12 09:33:40;;;;;;;9.50;6.00;;;;;;;4.76;100.00;61308.38;5091521;28;20452;-79
2022/03/12 09:36:09;;;;;;;9.27;5.47;;;;;;;4.67;90.56;61298.78;5091549;28;20931;-81
2022/03/12 09:38:38;;;;;;;6.47;3.43;;;;;;;4.28;79.03;61258.34;5091228;28;20476;-78
2022/03/12 09:41:09;;;;;;;6.60;4.10;;;;;;;4.52;86.64;61288.41;5093173;28;20444;-79
2022/03/12 09:46:18;;;;;;;5.67;4.10;;;;;;;4.94;75.34;61330.06;5091233;28;20508;-77
2022/03/12 09:48:45;;;;;;;9.10;5.00;;;;;;;4.76;78.06;61311.44;5091356;28;20542;-77
2022/03/12 09:51:14;;;;;;;12.93;7.83;;;;;;;5.03;73.35;61337.66;5091712;28;20499;-79
2022/03/12 09:53:42;;;;;;;8.03;4.93;;;;;;;4.12;78.67;61240.78;5091006;28;20465;-78
2022/03/12 09:56:10;;;;;;;8.47;4.90;;;;;;;3.16;76.14;61144.25;5092883;28;20507;-77
2022/03/12 09:58:38;;;;;;;16.87;6.60;;;;;;;2.84;87.23;61105.22;5092327;28;20465;-79
2022/03/12 10:01:06;;;;;;;9.57;5.40;;;;;;;2.92;86.95;61121.25;5079510;28;20966;-78
2022/03/12 10:03:34;;;;;;;6.57;5.00;;;;;;;2.60;80.49;61079.72;5075815;28;20482;-79
2022/03/12 10:06:06;;;;;;;6.80;4.10;;;;;;;2.43;82.21;61065.22;5076130;28;20465;-80
2022/03/12 10:08:34;;;;;;;6.33;4.60;;;;;;;2.15;85.94;61032.44;5075766;28;20485;-78
2022/03/12 10:11:01;;;;;;;10.60;5.20;;;;;;;1.73;90.12;60988.41;5086022;28;20453;-77
2022/03/12 10:13:28;;;;;;;12.10;5.17;;;;;;;1.89;92.52;61005.38;5095773;28;20999;-76
2022/03/12 10:15:56;;;;;;;7.80;4.67;;;;;;;1.29;100.00;60944.72;5093191;28;20445;-76
2022/03/12 10:18:24;;;;;;;5.63;4.10;;;;;;;2.37;99.31;61058.84;5093097;28;20976;-75
2022/03/12 10:20:57;;;;;;;6.90;4.30;;;;;;;2.13;90.52;61030.31;5094843;28;20836;-74
2022/03/12 10:23:28;;;;;;;7.03;4.23;;;;;;;2.27;83.50;61050.75;5095301;28;20815;-74
2022/03/12 10:25:56;;;;;;;8.23;4.77;;;;;;;1.81;85.85;60996.34;5095145;28;20456;-76
2022/03/12 10:28:23;;;;;;;8.13;5.00;;;;;;;2.37;91.66;61056.34;5095325;28;20442;-76
2022/03/12 10:30:53;;;;;;;8.17;5.17;;;;;;;2.26;86.13;61042.13;5095074;28;20952;-74
2022/03/12 10:33:27;;;;;;;9.53;5.77;;;;;;;2.55;86.96;61075.47;5093631;28;20460;-73
2022/03/12 10:36:10;;;;;;;9.90;6.40;;;;;;;2.87;90.62;61113.97;5094359;28;20449;-75
2022/03/12 10:38:43;;;;;;;9.53;4.57;;;;;;;2.79;87.75;61095.41;5086214;28;20452;-74
2022/03/12 10:41:11;;;;;;;5.13;3.77;;;;;;;2.67;88.35;61087.13;5074729;28;20474;-73
2022/03/12 10:43:50;;;;;;;7.77;4.37;;;;;;;2.30;88.08;61048.91;5082980;28;20445;-73
2022/03/12 10:46:27;;;;;;;11.37;5.10;;;;;;;2.66;89.02;61091.13;5094659;28;20440;-76
2022/03/12 10:49:02;;;;;;;7.60;4.63;;;;;;;2.38;89.35;61057.41;5094358;28;20539;-77
2022/03/12 10:51:35;;;;;;;6.97;4.00;;;;;;;2.20;94.45;61043.31;5093503;28;20480;-78
2022/03/12 10:54:15;;;;;;;4.43;3.30;;;;;;;2.23;93.11;61051.53;5095186;28;20433;-79
2022/03/12 10:56:45;;;;;;;7.03;3.77;;;;;;;1.75;84.45;60995.53;5094562;28;20550;-77
2022/03/12 10:59:17;;;;;;;6.97;4.10;;;;;;;1.92;88.24;61008.00;5093297;28;20497;-77
2022/03/12 11:01:54;;;;;;;5.77;3.80;;;;;;;1.78;86.29;60996.19;5094963;28;20515;-79
2022/03/12 11:04:26;;;;;;;6.33;4.03;;;;;;;1.86;88.26;61007.22;5095261;28;20546;-79
2022/03/12 11:07:25;;;;;;;5.13;3.50;;;;;;;2.20;84.68;61042.78;5094691;28;20955;-80
2022/03/12 11:09:56;;;;;;;4.63;3.27;;;;;;;2.23;84.61;61044.00;5094728;28;20572;-80
2022/03/12 11:15:15;;;;;;;5.43;3.53;;;;;;;1.77;80.57;60997.66;5094561;28;20507;-80
2022/03/12 11:17:46;;;;;;;5.53;4.00;;;;;;;2.20;81.27;61038.28;5094792;28;20530;-78
2022/03/12 11:20:18;;;;;;;6.57;3.60;;;;;;;2.28;83.93;61046.78;5094090;28;20532;-79
2022/03/12 11:23:06;;;;;;;6.40;3.23;;;;;;;2.26;83.51;61044.13;5094609;28;20454;-78
2022/03/12 11:25:40;;;;;;;6.43;3.73;;;;;;;2.10;84.57;61030.16;5097822;28;20948;-79
2022/03/12 11:28:21;;;;;;;4.83;3.43;;;;;;;2.32;88.96;61056.03;5097678;28;20444;-78
2022/03/12 11:30:52;;;;;;;5.23;3.13;;;;;;;2.29;85.98;61052.88;5105072;28;20540;-78
2022/03/12 11:33:24;;;;;;;6.27;3.13;;;;;;;2.50;75.21;61074.63;5098817;28;20968;-77
2022/03/12 11:36:09;;;;;;;4.93;2.80;;;;;;;2.89;71.34;61113.56;5095820;28;21029;-79
2022/03/12 11:38:39;;;;;;;4.90;3.37;;;;;;;2.25;68.53;61043.59;5095088;28;20548;-79
2022/03/12 11:41:11;;;;;;;6.87;3.63;;;;;;;3.64;66.01;61187.75;5095012;28;20444;-80
2022/03/12 11:46:32;;;;;;;5.43;3.30;;;;;;;3.02;66.84;61124.34;5094996;28;20442;-79
2022/03/12 11:49:00;;;;;;;6.33;3.20;;;;;;;2.77;65.85;61098.31;5092464;28;20605;-79
2022/03/12 11:57:18;;;;;;;8.27;3.53;;;;;;;3.03;68.84;61127.91;5093822;28;20963;-77
2022/03/12 11:59:50;;;;;;;7.73;4.03;;;;;;;3.02;70.66;61124.34;5094011;28;20441;-78
2022/03/12 12:02:33;;;;;;;6.90;4.10;;;;;;;3.12;75.24;61135.50;5094009;28;20449;-78
2022/03/12 12:05:07;;;;;;;4.57;3.13;;;;;;;2.08;77.42;61025.53;5093901;28;20513;-79
2022/03/12 12:07:38;;;;;;;6.87;3.50;;;;;;;3.20;78.90;61146.00;5093658;28;20467;-76